WLF88S FBSK-FYWH
Flight info
| Callsign | WLF88S |
|---|---|
| Flight time | 1h 22m |
| Altitude | 26000 |
| Route | TESOS2A UVLUK UL435 AVULA UT916 UTSET UN182 AXODO AXODO1B |
| Aircraft | B722/M-SDFGHRWY/C |
Departure
| Time | 2026-04-30 19:03 |
|---|---|
| Airport | Sir Seretse Khama International Airport (FBSK) |
Arrival
| Time | 2026-04-30 20:26 |
|---|---|
| Airport | Hosea Kutako International Airport (FYWH) |
| Time | Latitude | Longitude | Altitude | Speed | Heading |
|---|---|---|---|---|---|
| 2026-04-30 18:25 | -24.55981 | 25.91724 | 3326 ft | 0 kts | 152° |
| 2026-04-30 18:54 | -24.55979 | 25.91723 | 3326 ft | 2 kts | 152° |
| 2026-04-30 18:54 | -24.55961 | 25.91712 | 3326 ft | 3 kts | 152° |
| 2026-04-30 18:55 | -24.55943 | 25.91702 | 3326 ft | 3 kts | 152° |
| 2026-04-30 18:55 | -24.55910 | 25.91687 | 3326 ft | 3 kts | 185° |
| 2026-04-30 18:55 | -24.55900 | 25.91691 | 3326 ft | 3 kts | 212° |
| 2026-04-30 18:56 | -24.55881 | 25.91715 | 3326 ft | 0 kts | 241° |
| 2026-04-30 19:00 | -24.55915 | 25.91729 | 3326 ft | 7 kts | 57° |
| 2026-04-30 19:00 | -24.55861 | 25.91755 | 3326 ft | 10 kts | 357° |
| 2026-04-30 19:00 | -24.55858 | 25.91587 | 3326 ft | 17 kts | 241° |
| 2026-04-30 19:01 | -24.55838 | 25.91469 | 3326 ft | 0 kts | 329° |
| 2026-04-30 19:02 | -24.55782 | 25.91433 | 3325 ft | 12 kts | 330° |
| 2026-04-30 19:02 | -24.55572 | 25.91745 | 3327 ft | 69 kts | 61° |
| 2026-04-30 19:03 | -24.54792 | 25.93321 | 3378 ft | 153 kts | 61° |
| 2026-04-30 19:03 | -24.53723 | 25.95469 | 4231 ft | 164 kts | 45° |
| 2026-04-30 19:04 | -24.51666 | 25.96099 | 4897 ft | 164 kts | 346° |
| 2026-04-30 19:04 | -24.50099 | 25.94184 | 5348 ft | 191 kts | 293° |
| 2026-04-30 19:05 | -24.49437 | 25.91214 | 5843 ft | 215 kts | 289° |
| 2026-04-30 19:05 | -24.48583 | 25.87812 | 6630 ft | 247 kts | 290° |
| 2026-04-30 19:06 | -24.47603 | 25.83960 | 7772 ft | 264 kts | 289° |
| 2026-04-30 19:06 | -24.47117 | 25.82019 | 8454 ft | 266 kts | 289° |
| 2026-04-30 19:06 | -24.46116 | 25.78082 | 9900 ft | 269 kts | 288° |
| 2026-04-30 19:07 | -24.45113 | 25.74122 | 11207 ft | 272 kts | 288° |
| 2026-04-30 19:07 | -24.44609 | 25.72137 | 11828 ft | 274 kts | 287° |
| 2026-04-30 19:08 | -24.43805 | 25.68020 | 13066 ft | 281 kts | 275° |
| 2026-04-30 19:08 | -24.44067 | 25.63701 | 14297 ft | 286 kts | 268° |
| 2026-04-30 19:08 | -24.44169 | 25.61517 | 14853 ft | 287 kts | 270° |
| 2026-04-30 19:09 | -24.44300 | 25.57096 | 15960 ft | 292 kts | 269° |
| 2026-04-30 19:09 | -24.44399 | 25.54861 | 16535 ft | 294 kts | 269° |
| 2026-04-30 19:09 | -24.44490 | 25.52602 | 17101 ft | 297 kts | 269° |
| 2026-04-30 19:10 | -24.44662 | 25.48045 | 18226 ft | 301 kts | 269° |
| 2026-04-30 19:10 | -24.44841 | 25.43410 | 19169 ft | 306 kts | 269° |
| 2026-04-30 19:11 | -24.44930 | 25.41067 | 19647 ft | 308 kts | 270° |
| 2026-04-30 19:11 | -24.45109 | 25.36350 | 20549 ft | 312 kts | 270° |
| 2026-04-30 19:11 | -24.45199 | 25.33966 | 21008 ft | 313 kts | 271° |
| 2026-04-30 19:12 | -24.45290 | 25.31571 | 21481 ft | 314 kts | 271° |
| 2026-04-30 19:12 | -24.45380 | 25.29172 | 21961 ft | 315 kts | 272° |
| 2026-04-30 19:12 | -24.45468 | 25.26762 | 22384 ft | 317 kts | 272° |
| 2026-04-30 19:13 | -24.45640 | 25.21924 | 23222 ft | 320 kts | 274° |
| 2026-04-30 19:13 | -24.44549 | 25.17297 | 23960 ft | 315 kts | 298° |
| 2026-04-30 19:13 | -24.43477 | 25.15202 | 24314 ft | 315 kts | 302° |
| 2026-04-30 19:14 | -24.42318 | 25.13148 | 24645 ft | 317 kts | 302° |
| 2026-04-30 19:14 | -24.41221 | 25.11049 | 24996 ft | 318 kts | 300° |
| 2026-04-30 19:14 | -24.40158 | 25.08912 | 25330 ft | 319 kts | 300° |
| 2026-04-30 19:14 | -24.39070 | 25.06786 | 25665 ft | 321 kts | 301° |
| 2026-04-30 19:15 | -24.37956 | 25.04656 | 25990 ft | 322 kts | 301° |
| 2026-04-30 19:15 | -24.35687 | 25.00266 | 26094 ft | 342 kts | 300° |
| 2026-04-30 19:15 | -24.34494 | 24.97953 | 26091 ft | 355 kts | 301° |
| 2026-04-30 19:16 | -24.33251 | 24.95554 | 26100 ft | 367 kts | 301° |
| 2026-04-30 19:16 | -24.31970 | 24.93080 | 26085 ft | 379 kts | 301° |
| 2026-04-30 19:16 | -24.29296 | 24.87915 | 26084 ft | 401 kts | 301° |
| 2026-04-30 19:17 | -24.27918 | 24.85257 | 26094 ft | 410 kts | 300° |
| 2026-04-30 19:17 | -24.25031 | 24.79694 | 26091 ft | 429 kts | 300° |
| 2026-04-30 19:17 | -24.23542 | 24.76827 | 26083 ft | 435 kts | 300° |
| 2026-04-30 19:18 | -24.21049 | 24.72028 | 26077 ft | 436 kts | 300° |
| 2026-04-30 19:18 | -24.19165 | 24.68100 | 26073 ft | 436 kts | 296° |
| 2026-04-30 19:18 | -24.18031 | 24.65009 | 26070 ft | 437 kts | 292° |
| 2026-04-30 19:19 | -24.17037 | 24.61862 | 26063 ft | 438 kts | 291° |
| 2026-04-30 19:19 | -24.15956 | 24.58723 | 26051 ft | 444 kts | 294° |
| 2026-04-30 19:19 | -24.13489 | 24.52405 | 26056 ft | 459 kts | 294° |
| 2026-04-30 19:20 | -24.12335 | 24.49122 | 26054 ft | 465 kts | 292° |
| 2026-04-30 19:20 | -24.11172 | 24.45819 | 26059 ft | 465 kts | 294° |
| 2026-04-30 19:20 | -24.08698 | 24.39278 | 26062 ft | 465 kts | 294° |
| 2026-04-30 19:21 | -24.07504 | 24.35993 | 26055 ft | 464 kts | 293° |
| 2026-04-30 19:21 | -24.05112 | 24.29450 | 26055 ft | 463 kts | 294° |
| 2026-04-30 19:22 | -24.02684 | 24.22919 | 26049 ft | 463 kts | 293° |
| 2026-04-30 19:22 | -24.00537 | 24.17073 | 26049 ft | 463 kts | 294° |
| 2026-04-30 19:23 | -23.97286 | 24.07130 | 26030 ft | 469 kts | 279° |
| 2026-04-30 19:24 | -23.98687 | 24.00189 | 26026 ft | 490 kts | 245° |
| 2026-04-30 19:24 | -24.00913 | 23.97247 | 26029 ft | 507 kts | 227° |
| 2026-04-30 19:24 | -24.06839 | 23.92869 | 26047 ft | 514 kts | 221° |
| 2026-04-30 19:25 | -24.13799 | 23.84620 | 26042 ft | 486 kts | 251° |
| 2026-04-30 19:26 | -24.15378 | 23.77599 | 26047 ft | 471 kts | 271° |
| 2026-04-30 19:26 | -24.14635 | 23.70560 | 26039 ft | 464 kts | 284° |
| 2026-04-30 19:26 | -24.13820 | 23.67144 | 26041 ft | 463 kts | 288° |
| 2026-04-30 19:27 | -24.11934 | 23.60393 | 26036 ft | 464 kts | 287° |
| 2026-04-30 19:27 | -24.10351 | 23.53551 | 26034 ft | 464 kts | 287° |
| 2026-04-30 19:28 | -24.09444 | 23.50166 | 26031 ft | 463 kts | 288° |
| 2026-04-30 19:28 | -24.07715 | 23.43360 | 26029 ft | 464 kts | 286° |
| 2026-04-30 19:29 | -24.06004 | 23.36533 | 26019 ft | 465 kts | 288° |
| 2026-04-30 19:29 | -24.05115 | 23.33130 | 26013 ft | 465 kts | 287° |
| 2026-04-30 19:30 | -24.02545 | 23.22905 | 26018 ft | 465 kts | 287° |
| 2026-04-30 19:30 | -24.00801 | 23.16094 | 26016 ft | 465 kts | 287° |
| 2026-04-30 19:31 | -23.99071 | 23.09280 | 26022 ft | 465 kts | 287° |
| 2026-04-30 19:31 | -23.98192 | 23.05867 | 26022 ft | 465 kts | 287° |
| 2026-04-30 19:31 | -23.96469 | 22.99100 | 26022 ft | 465 kts | 287° |
| 2026-04-30 19:32 | -23.95596 | 22.95697 | 26021 ft | 465 kts | 287° |
| 2026-04-30 19:32 | -23.94706 | 22.92240 | 26021 ft | 465 kts | 287° |
| 2026-04-30 19:32 | -23.93845 | 22.88882 | 26021 ft | 465 kts | 287° |
| 2026-04-30 19:32 | -23.92973 | 22.85476 | 26021 ft | 465 kts | 287° |
| 2026-04-30 19:33 | -23.92097 | 22.82074 | 26027 ft | 465 kts | 287° |
| 2026-04-30 19:33 | -23.91220 | 22.78675 | 26027 ft | 465 kts | 287° |
| 2026-04-30 19:33 | -23.90345 | 22.75268 | 26033 ft | 464 kts | 287° |
| 2026-04-30 19:33 | -23.89472 | 22.71869 | 26033 ft | 465 kts | 287° |
| 2026-04-30 19:34 | -23.88597 | 22.68480 | 26021 ft | 464 kts | 288° |
| 2026-04-30 19:34 | -23.87719 | 22.65076 | 26019 ft | 466 kts | 287° |
| 2026-04-30 19:34 | -23.85957 | 22.58247 | 26025 ft | 466 kts | 287° |
| 2026-04-30 19:35 | -23.85074 | 22.54841 | 26026 ft | 467 kts | 287° |
| 2026-04-30 19:35 | -23.84193 | 22.51435 | 26026 ft | 467 kts | 287° |
| 2026-04-30 19:35 | -23.83310 | 22.48025 | 26027 ft | 467 kts | 287° |
| 2026-04-30 19:35 | -23.82424 | 22.44613 | 26050 ft | 466 kts | 288° |
| 2026-04-30 19:36 | -23.81544 | 22.41220 | 26050 ft | 463 kts | 288° |
| 2026-04-30 19:36 | -23.80665 | 22.37840 | 26044 ft | 463 kts | 288° |
| 2026-04-30 19:36 | -23.78901 | 22.31066 | 26051 ft | 464 kts | 288° |
| 2026-04-30 19:37 | -23.78030 | 22.27722 | 26055 ft | 463 kts | 288° |
| 2026-04-30 19:37 | -23.77137 | 22.24300 | 26054 ft | 463 kts | 288° |
| 2026-04-30 19:37 | -23.76263 | 22.20955 | 26053 ft | 464 kts | 288° |
| 2026-04-30 19:37 | -23.75377 | 22.17568 | 26057 ft | 463 kts | 288° |
| 2026-04-30 19:38 | -23.74493 | 22.14189 | 26057 ft | 463 kts | 288° |
| 2026-04-30 19:38 | -23.73608 | 22.10806 | 26052 ft | 462 kts | 288° |
| 2026-04-30 19:38 | -23.72723 | 22.07436 | 26054 ft | 462 kts | 288° |
| 2026-04-30 19:38 | -23.71838 | 22.04067 | 26063 ft | 462 kts | 288° |
| 2026-04-30 19:39 | -23.70956 | 22.00705 | 26062 ft | 462 kts | 288° |
| 2026-04-30 19:39 | -23.70071 | 21.97337 | 26064 ft | 462 kts | 288° |
| 2026-04-30 19:39 | -23.69182 | 21.93967 | 26062 ft | 462 kts | 288° |
| 2026-04-30 19:39 | -23.68294 | 21.90595 | 26064 ft | 462 kts | 288° |
| 2026-04-30 19:40 | -23.67408 | 21.87229 | 26065 ft | 462 kts | 288° |
| 2026-04-30 19:40 | -23.66521 | 21.83872 | 26064 ft | 462 kts | 288° |
| 2026-04-30 19:40 | -23.65631 | 21.80508 | 26059 ft | 462 kts | 288° |
| 2026-04-30 19:40 | -23.64737 | 21.77126 | 26067 ft | 463 kts | 288° |
| 2026-04-30 19:41 | -23.63845 | 21.73756 | 26063 ft | 464 kts | 288° |
| 2026-04-30 19:41 | -23.62948 | 21.70374 | 26068 ft | 464 kts | 288° |
| 2026-04-30 19:41 | -23.62053 | 21.66996 | 26064 ft | 464 kts | 288° |
| 2026-04-30 19:41 | -23.61157 | 21.63617 | 26065 ft | 464 kts | 288° |
| 2026-04-30 19:42 | -23.60260 | 21.60247 | 26067 ft | 464 kts | 288° |
| 2026-04-30 19:42 | -23.59360 | 21.56864 | 26068 ft | 464 kts | 288° |
| 2026-04-30 19:42 | -23.58473 | 21.53528 | 26071 ft | 464 kts | 288° |
| 2026-04-30 19:42 | -23.57573 | 21.50152 | 26070 ft | 464 kts | 288° |
| 2026-04-30 19:43 | -23.56670 | 21.46770 | 26071 ft | 464 kts | 288° |
| 2026-04-30 19:43 | -23.55771 | 21.43399 | 26069 ft | 464 kts | 288° |
| 2026-04-30 19:43 | -23.54868 | 21.40024 | 26074 ft | 464 kts | 288° |
| 2026-04-30 19:44 | -23.53369 | 21.34420 | 26071 ft | 464 kts | 288° |
| 2026-04-30 19:44 | -23.52466 | 21.31047 | 26073 ft | 464 kts | 288° |
| 2026-04-30 19:44 | -23.51561 | 21.27676 | 26073 ft | 464 kts | 288° |
| 2026-04-30 19:44 | -23.50653 | 21.24296 | 26049 ft | 464 kts | 288° |
| 2026-04-30 19:45 | -23.49749 | 21.20927 | 26056 ft | 464 kts | 288° |
| 2026-04-30 19:45 | -23.48842 | 21.17556 | 26057 ft | 464 kts | 288° |
| 2026-04-30 19:45 | -23.47933 | 21.14179 | 26059 ft | 464 kts | 288° |
| 2026-04-30 19:45 | -23.47021 | 21.10798 | 26067 ft | 466 kts | 288° |
| 2026-04-30 19:46 | -23.46108 | 21.07410 | 26064 ft | 466 kts | 288° |
| 2026-04-30 19:46 | -23.45197 | 21.04033 | 26066 ft | 466 kts | 288° |
| 2026-04-30 19:46 | -23.44278 | 21.00637 | 26065 ft | 466 kts | 288° |
| 2026-04-30 19:46 | -23.43361 | 20.97246 | 26068 ft | 466 kts | 288° |
| 2026-04-30 19:47 | -23.42448 | 20.93867 | 26068 ft | 466 kts | 288° |
| 2026-04-30 19:47 | -23.41839 | 20.91622 | 26065 ft | 466 kts | 288° |
| 2026-04-30 19:47 | -23.40610 | 20.87093 | 26066 ft | 466 kts | 288° |
| 2026-04-30 19:47 | -23.39693 | 20.83711 | 26065 ft | 466 kts | 288° |
| 2026-04-30 19:48 | -23.38773 | 20.80325 | 26075 ft | 466 kts | 287° |
| 2026-04-30 19:48 | -23.37846 | 20.76926 | 26068 ft | 469 kts | 287° |
| 2026-04-30 19:48 | -23.36921 | 20.73521 | 26069 ft | 469 kts | 287° |
| 2026-04-30 19:48 | -23.35995 | 20.70118 | 26072 ft | 469 kts | 287° |
| 2026-04-30 19:49 | -23.35065 | 20.66716 | 26074 ft | 469 kts | 287° |
| 2026-04-30 19:49 | -23.33219 | 20.59950 | 26074 ft | 469 kts | 287° |
| 2026-04-30 19:49 | -23.32288 | 20.56549 | 26072 ft | 469 kts | 287° |
| 2026-04-30 19:50 | -23.31355 | 20.53145 | 26070 ft | 469 kts | 287° |
| 2026-04-30 19:50 | -23.30423 | 20.49742 | 26058 ft | 469 kts | 287° |
| 2026-04-30 19:50 | -23.29479 | 20.46295 | 26059 ft | 471 kts | 287° |
| 2026-04-30 19:50 | -23.28549 | 20.42915 | 26059 ft | 473 kts | 286° |
| 2026-04-30 19:51 | -23.27605 | 20.39478 | 26061 ft | 473 kts | 286° |
| 2026-04-30 19:51 | -23.26663 | 20.36046 | 26066 ft | 474 kts | 286° |
| 2026-04-30 19:51 | -23.25718 | 20.32618 | 26067 ft | 473 kts | 286° |
| 2026-04-30 19:51 | -23.24772 | 20.29186 | 26065 ft | 473 kts | 286° |
| 2026-04-30 19:52 | -23.23828 | 20.25761 | 26067 ft | 473 kts | 286° |
| 2026-04-30 19:52 | -23.22880 | 20.22331 | 26068 ft | 473 kts | 286° |
| 2026-04-30 19:52 | -23.21935 | 20.18906 | 26064 ft | 474 kts | 286° |
| 2026-04-30 19:52 | -23.20986 | 20.15475 | 26066 ft | 474 kts | 286° |
| 2026-04-30 19:53 | -23.20036 | 20.12043 | 26073 ft | 472 kts | 286° |
| 2026-04-30 19:53 | -23.19090 | 20.08631 | 26069 ft | 471 kts | 287° |
| 2026-04-30 19:53 | -23.18147 | 20.05230 | 26068 ft | 471 kts | 286° |
| 2026-04-30 19:53 | -23.17202 | 20.01819 | 26068 ft | 471 kts | 287° |
| 2026-04-30 19:54 | -23.16260 | 19.98412 | 26068 ft | 471 kts | 286° |
| 2026-04-30 19:54 | -23.15361 | 19.94988 | 26068 ft | 471 kts | 285° |
| 2026-04-30 19:54 | -23.14489 | 19.91562 | 26063 ft | 471 kts | 285° |
| 2026-04-30 19:54 | -23.13585 | 19.88139 | 26065 ft | 471 kts | 286° |
| 2026-04-30 19:55 | -23.12659 | 19.84728 | 26062 ft | 471 kts | 286° |
| 2026-04-30 19:55 | -23.11753 | 19.81313 | 26062 ft | 471 kts | 285° |
| 2026-04-30 19:55 | -23.10863 | 19.77892 | 26067 ft | 469 kts | 285° |
| 2026-04-30 19:55 | -23.09963 | 19.74490 | 26058 ft | 470 kts | 286° |
| 2026-04-30 19:56 | -23.09046 | 19.71082 | 26056 ft | 470 kts | 286° |
| 2026-04-30 19:56 | -23.08138 | 19.67670 | 26053 ft | 470 kts | 285° |
| 2026-04-30 19:56 | -23.07248 | 19.64293 | 26053 ft | 470 kts | 285° |
| 2026-04-30 19:56 | -23.06330 | 19.60841 | 26052 ft | 470 kts | 286° |
| 2026-04-30 19:57 | -23.05424 | 19.57468 | 26057 ft | 470 kts | 286° |
| 2026-04-30 19:57 | -23.04503 | 19.54015 | 26058 ft | 470 kts | 286° |
| 2026-04-30 19:57 | -23.03596 | 19.50596 | 26058 ft | 470 kts | 286° |
| 2026-04-30 19:57 | -23.02696 | 19.47232 | 26079 ft | 470 kts | 286° |
| 2026-04-30 19:58 | -23.01780 | 19.43824 | 26002 ft | 471 kts | 285° |
| 2026-04-30 19:58 | -23.00868 | 19.40414 | 25834 ft | 470 kts | 285° |
| 2026-04-30 19:58 | -22.99957 | 19.37005 | 25675 ft | 470 kts | 285° |
| 2026-04-30 19:58 | -22.99041 | 19.33594 | 25508 ft | 470 kts | 285° |
| 2026-04-30 19:59 | -22.98126 | 19.30192 | 25351 ft | 470 kts | 285° |
| 2026-04-30 19:59 | -22.97212 | 19.26788 | 25188 ft | 469 kts | 285° |
| 2026-04-30 19:59 | -22.95384 | 19.19996 | 24868 ft | 469 kts | 285° |
| 2026-04-30 20:00 | -22.94468 | 19.16598 | 24712 ft | 468 kts | 285° |
| 2026-04-30 20:00 | -22.93556 | 19.13212 | 24554 ft | 467 kts | 285° |
| 2026-04-30 20:00 | -22.92640 | 19.09820 | 24394 ft | 470 kts | 284° |
| 2026-04-30 20:00 | -22.91718 | 19.06411 | 24237 ft | 471 kts | 284° |
| 2026-04-30 20:01 | -22.89874 | 18.99599 | 23928 ft | 470 kts | 284° |
| 2026-04-30 20:01 | -22.88953 | 18.96201 | 23771 ft | 472 kts | 284° |
| 2026-04-30 20:01 | -22.88029 | 18.92790 | 23608 ft | 471 kts | 284° |
| 2026-04-30 20:02 | -22.86179 | 18.85981 | 23241 ft | 469 kts | 284° |
| 2026-04-30 20:02 | -22.85256 | 18.82590 | 23062 ft | 468 kts | 284° |
| 2026-04-30 20:03 | -22.83415 | 18.75823 | 22702 ft | 468 kts | 284° |
| 2026-04-30 20:03 | -22.82490 | 18.72440 | 22518 ft | 468 kts | 284° |
| 2026-04-30 20:03 | -22.81569 | 18.69064 | 22343 ft | 467 kts | 284° |
| 2026-04-30 20:03 | -22.80659 | 18.65730 | 22166 ft | 467 kts | 284° |
| 2026-04-30 20:04 | -22.79725 | 18.62320 | 21990 ft | 466 kts | 284° |
| 2026-04-30 20:04 | -22.78805 | 18.58962 | 21737 ft | 465 kts | 284° |
| 2026-04-30 20:04 | -22.77898 | 18.55645 | 21339 ft | 464 kts | 284° |
| 2026-04-30 20:05 | -22.76069 | 18.48985 | 20330 ft | 459 kts | 284° |
| 2026-04-30 20:05 | -22.75161 | 18.45679 | 19814 ft | 457 kts | 284° |
| 2026-04-30 20:05 | -22.73351 | 18.39094 | 18806 ft | 455 kts | 283° |
| 2026-04-30 20:06 | -22.72445 | 18.35812 | 18320 ft | 454 kts | 283° |
| 2026-04-30 20:06 | -22.71446 | 18.32588 | 17755 ft | 451 kts | 290° |
| 2026-04-30 20:06 | -22.70055 | 18.29570 | 17205 ft | 445 kts | 296° |
| 2026-04-30 20:06 | -22.68455 | 18.26738 | 16660 ft | 438 kts | 300° |
| 2026-04-30 20:07 | -22.66811 | 18.24001 | 16109 ft | 428 kts | 300° |
| 2026-04-30 20:07 | -22.65333 | 18.21241 | 15588 ft | 419 kts | 297° |
| 2026-04-30 20:07 | -22.62532 | 18.15830 | 14653 ft | 406 kts | 300° |
| 2026-04-30 20:08 | -22.61051 | 18.13246 | 14214 ft | 399 kts | 301° |
| 2026-04-30 20:08 | -22.59652 | 18.10688 | 13756 ft | 393 kts | 299° |
| 2026-04-30 20:08 | -22.58316 | 18.08121 | 13282 ft | 391 kts | 299° |
| 2026-04-30 20:08 | -22.56958 | 18.05589 | 12806 ft | 387 kts | 301° |
| 2026-04-30 20:09 | -22.55573 | 18.03107 | 12332 ft | 384 kts | 301° |
| 2026-04-30 20:09 | -22.54216 | 18.00626 | 11877 ft | 381 kts | 300° |
| 2026-04-30 20:09 | -22.51575 | 17.95703 | 10997 ft | 376 kts | 301° |
| 2026-04-30 20:10 | -22.49055 | 17.91100 | 10196 ft | 322 kts | 300° |
| 2026-04-30 20:10 | -22.47985 | 17.89113 | 9773 ft | 291 kts | 301° |
| 2026-04-30 20:10 | -22.47003 | 17.87307 | 9317 ft | 268 kts | 301° |
| 2026-04-30 20:11 | -22.45197 | 17.83995 | 8450 ft | 256 kts | 300° |
| 2026-04-30 20:11 | -22.44296 | 17.82340 | 8024 ft | 255 kts | 300° |
| 2026-04-30 20:11 | -22.43392 | 17.80687 | 7884 ft | 259 kts | 300° |
| 2026-04-30 20:12 | -22.41551 | 17.77324 | 8007 ft | 266 kts | 300° |
| 2026-04-30 20:12 | -22.40597 | 17.75580 | 8022 ft | 272 kts | 300° |
| 2026-04-30 20:12 | -22.39624 | 17.73804 | 8040 ft | 278 kts | 300° |
| 2026-04-30 20:13 | -22.38722 | 17.71934 | 8038 ft | 283 kts | 288° |
| 2026-04-30 20:13 | -22.38634 | 17.69803 | 8045 ft | 292 kts | 260° |
| 2026-04-30 20:13 | -22.39238 | 17.67697 | 7855 ft | 295 kts | 256° |
| 2026-04-30 20:13 | -22.39872 | 17.65612 | 7442 ft | 284 kts | 255° |
| 2026-04-30 20:14 | -22.40458 | 17.63724 | 7284 ft | 247 kts | 253° |
| 2026-04-30 20:14 | -22.41115 | 17.62113 | 6978 ft | 226 kts | 246° |
| 2026-04-30 20:14 | -22.41873 | 17.60727 | 6873 ft | 202 kts | 243° |
| 2026-04-30 20:14 | -22.42533 | 17.59463 | 6564 ft | 182 kts | 247° |
| 2026-04-30 20:15 | -22.42949 | 17.58290 | 6490 ft | 154 kts | 256° |
| 2026-04-30 20:15 | -22.43331 | 17.57262 | 6403 ft | 145 kts | 245° |
| 2026-04-30 20:15 | -22.43802 | 17.56296 | 6463 ft | 146 kts | 246° |
| 2026-04-30 20:15 | -22.44263 | 17.55318 | 6540 ft | 146 kts | 247° |
| 2026-04-30 20:16 | -22.44710 | 17.54348 | 6483 ft | 145 kts | 249° |
| 2026-04-30 20:16 | -22.45144 | 17.53307 | 6351 ft | 160 kts | 249° |
| 2026-04-30 20:16 | -22.45646 | 17.52204 | 6152 ft | 162 kts | 242° |
| 2026-04-30 20:16 | -22.46148 | 17.51153 | 6035 ft | 158 kts | 246° |
| 2026-04-30 20:17 | -22.46635 | 17.50063 | 5794 ft | 159 kts | 244° |
| 2026-04-30 20:17 | -22.47107 | 17.49021 | 5583 ft | 153 kts | 243° |
| 2026-04-30 20:17 | -22.47544 | 17.48061 | 5543 ft | 128 kts | 244° |
| 2026-04-30 20:17 | -22.47917 | 17.47196 | 5567 ft | 127 kts | 242° |
| 2026-04-30 20:18 | -22.48322 | 17.46295 | 5674 ft | 138 kts | 245° |
| 2026-04-30 20:18 | -22.48740 | 17.45278 | 5836 ft | 160 kts | 246° |
| 2026-04-30 20:18 | -22.49171 | 17.44124 | 6233 ft | 168 kts | 250° |
| 2026-04-30 20:18 | -22.49599 | 17.42927 | 6748 ft | 171 kts | 253° |
| 2026-04-30 20:19 | -22.49506 | 17.41787 | 7077 ft | 151 kts | 310° |
| 2026-04-30 20:19 | -22.48857 | 17.41409 | 7009 ft | 175 kts | 350° |
| 2026-04-30 20:19 | -22.47358 | 17.42372 | 7187 ft | 221 kts | 61° |
| 2026-04-30 20:19 | -22.46801 | 17.43910 | 7723 ft | 223 kts | 65° |
| 2026-04-30 20:20 | -22.46233 | 17.45582 | 7797 ft | 246 kts | 65° |
| 2026-04-30 20:20 | -22.45644 | 17.47342 | 8027 ft | 256 kts | 66° |
| 2026-04-30 20:20 | -22.45052 | 17.49200 | 8128 ft | 267 kts | 66° |
| 2026-04-30 20:20 | -22.44429 | 17.51147 | 8154 ft | 281 kts | 67° |
| 2026-04-30 20:21 | -22.43789 | 17.53184 | 8168 ft | 293 kts | 67° |
| 2026-04-30 20:21 | -22.43151 | 17.55307 | 8270 ft | 301 kts | 68° |
| 2026-04-30 20:21 | -22.42631 | 17.57453 | 8320 ft | 288 kts | 85° |
| 2026-04-30 20:21 | -22.43096 | 17.59473 | 8310 ft | 276 kts | 123° |
| 2026-04-30 20:22 | -22.44481 | 17.60804 | 8101 ft | 260 kts | 161° |
| 2026-04-30 20:22 | -22.46119 | 17.61026 | 8080 ft | 222 kts | 201° |
| 2026-04-30 20:22 | -22.47331 | 17.60251 | 7981 ft | 189 kts | 239° |
| 2026-04-30 20:22 | -22.47657 | 17.59031 | 7865 ft | 171 kts | 282° |
| 2026-04-30 20:23 | -22.47110 | 17.57835 | 7641 ft | 185 kts | 306° |
| 2026-04-30 20:23 | -22.46313 | 17.56798 | 7539 ft | 172 kts | 309° |
| 2026-04-30 20:23 | -22.45649 | 17.55829 | 7300 ft | 153 kts | 301° |
| 2026-04-30 20:23 | -22.45156 | 17.54808 | 6813 ft | 151 kts | 289° |
| 2026-04-30 20:24 | -22.45054 | 17.53724 | 6503 ft | 150 kts | 262° |
| 2026-04-30 20:24 | -22.45503 | 17.52623 | 6298 ft | 168 kts | 244° |
| 2026-04-30 20:24 | -22.46017 | 17.51472 | 6140 ft | 171 kts | 250° |
| 2026-04-30 20:24 | -22.46510 | 17.50325 | 5865 ft | 166 kts | 243° |
| 2026-04-30 20:25 | -22.47449 | 17.48282 | 5533 ft | 123 kts | 244° |
| 2026-04-30 20:25 | -22.47756 | 17.47608 | 5557 ft | 79 kts | 243° |
| 2026-04-30 20:26 | -22.48016 | 17.47054 | 5566 ft | 17 kts | 248° |
| 2026-04-30 20:26 | -22.48138 | 17.46773 | 5565 ft | 25 kts | 244° |
| 2026-04-30 20:26 | -22.48246 | 17.46536 | 5564 ft | 41 kts | 244° |
| 2026-04-30 20:27 | -22.48415 | 17.46299 | 5571 ft | 11 kts | 158° |
| 2026-04-30 20:27 | -22.48550 | 17.46292 | 5573 ft | 13 kts | 154° |
| 2026-04-30 20:28 | -22.48589 | 17.46313 | 5572 ft | 0 kts | 153° |